sensor_id;sensor_type;location;lat;lon;timestamp;pressure;altitude;pressure_sealevel;temperature;humidity
6506;BME280;3286;49.858;8.768;2024-02-21T00:02:20;100074.31;;;10.63;53.29
6506;BME280;3286;49.858;8.768;2024-02-21T00:04:48;100069.34;;;10.70;53.35
6506;BME280;3286;49.858;8.768;2024-02-21T00:07:14;100062.56;;;10.77;52.65
6506;BME280;3286;49.858;8.768;2024-02-21T00:09:41;100060.28;;;10.63;53.77
6506;BME280;3286;49.858;8.768;2024-02-21T00:12:08;100057.94;;;10.48;53.56
6506;BME280;3286;49.858;8.768;2024-02-21T00:14:35;100053.72;;;10.24;54.82
6506;BME280;3286;49.858;8.768;2024-02-21T00:17:02;100054.75;;;10.33;54.82
6506;BME280;3286;49.858;8.768;2024-02-21T00:19:28;100054.84;;;10.10;55.12
6506;BME280;3286;49.858;8.768;2024-02-21T00:21:56;100048.47;;;9.80;55.80
6506;BME280;3286;49.858;8.768;2024-02-21T00:24:23;100046.81;;;10.33;54.43
6506;BME280;3286;49.858;8.768;2024-02-21T00:26:49;100042.13;;;10.37;54.36
6506;BME280;3286;49.858;8.768;2024-02-21T00:29:16;100047.22;;;10.28;55.09
6506;BME280;3286;49.858;8.768;2024-02-21T00:31:43;100042.72;;;9.75;56.06
6506;BME280;3286;49.858;8.768;2024-02-21T00:34:10;100032.00;;;10.21;55.42
6506;BME280;3286;49.858;8.768;2024-02-21T00:36:38;100027.00;;;10.60;54.00
6506;BME280;3286;49.858;8.768;2024-02-21T00:39:06;100018.63;;;10.34;54.98
6506;BME280;3286;49.858;8.768;2024-02-21T00:41:32;100016.09;;;10.32;54.60
6506;BME280;3286;49.858;8.768;2024-02-21T00:43:59;100013.44;;;10.43;54.30
6506;BME280;3286;49.858;8.768;2024-02-21T00:46:26;100003.56;;;10.24;55.01
6506;BME280;3286;49.858;8.768;2024-02-21T00:48:52;99994.22;;;9.88;55.66
6506;BME280;3286;49.858;8.768;2024-02-21T00:51:19;99992.03;;;10.68;53.87
6506;BME280;3286;49.858;8.768;2024-02-21T00:53:45;99994.81;;;9.91;55.13
6506;BME280;3286;49.858;8.768;2024-02-21T00:56:14;99980.75;;;10.23;55.07
6506;BME280;3286;49.858;8.768;2024-02-21T00:58:40;99982.19;;;9.95;55.03
6506;BME280;3286;49.858;8.768;2024-02-21T01:01:07;99980.09;;;10.31;54.41
6506;BME280;3286;49.858;8.768;2024-02-21T01:03:33;99970.81;;;10.37;54.33
6506;BME280;3286;49.858;8.768;2024-02-21T01:06:00;99973.47;;;10.15;55.35
6506;BME280;3286;49.858;8.768;2024-02-21T01:08:27;99963.69;;;10.27;54.73
6506;BME280;3286;49.858;8.768;2024-02-21T01:10:53;99965.66;;;10.35;54.66
6506;BME280;3286;49.858;8.768;2024-02-21T01:13:21;99962.94;;;9.83;55.34
6506;BME280;3286;49.858;8.768;2024-02-21T01:15:48;99949.81;;;10.14;55.00
6506;BME280;3286;49.858;8.768;2024-02-21T01:18:14;99951.81;;;10.00;55.60
6506;BME280;3286;49.858;8.768;2024-02-21T01:20:41;99954.66;;;9.55;56.42
6506;BME280;3286;49.858;8.768;2024-02-21T01:23:07;99960.59;;;10.22;54.57
6506;BME280;3286;49.858;8.768;2024-02-21T01:25:34;99956.31;;;10.52;53.54
6506;BME280;3286;49.858;8.768;2024-02-21T01:28:01;99969.94;;;10.26;54.06
6506;BME280;3286;49.858;8.768;2024-02-21T01:30:29;99966.88;;;9.56;56.32
6506;BME280;3286;49.858;8.768;2024-02-21T01:32:55;99959.63;;;10.02;54.84
6506;BME280;3286;49.858;8.768;2024-02-21T01:35:22;99972.31;;;10.29;53.77
6506;BME280;3286;49.858;8.768;2024-02-21T01:37:48;99965.91;;;10.53;53.48
6506;BME280;3286;49.858;8.768;2024-02-21T01:40:17;99974.69;;;10.33;53.94
6506;BME280;3286;49.858;8.768;2024-02-21T01:42:44;99983.00;;;10.28;54.42
6506;BME280;3286;49.858;8.768;2024-02-21T01:45:10;99973.72;;;10.55;54.05
6506;BME280;3286;49.858;8.768;2024-02-21T01:47:38;99970.50;;;10.09;55.26
6506;BME280;3286;49.858;8.768;2024-02-21T01:50:06;99968.63;;;9.99;55.18
6506;BME280;3286;49.858;8.768;2024-02-21T01:52:34;99953.75;;;10.20;55.52
6506;BME280;3286;49.858;8.768;2024-02-21T01:55:01;99946.16;;;10.48;54.09
6506;BME280;3286;49.858;8.768;2024-02-21T01:57:28;99952.00;;;9.88;55.37
6506;BME280;3286;49.858;8.768;2024-02-21T01:59:55;99961.66;;;9.98;55.92
6506;BME280;3286;49.858;8.768;2024-02-21T02:02:22;99954.31;;;9.48;57.15
6506;BME280;3286;49.858;8.768;2024-02-21T02:04:51;99958.88;;;9.46;56.78
6506;BME280;3286;49.858;8.768;2024-02-21T02:07:18;99948.00;;;9.39;57.34
6506;BME280;3286;49.858;8.768;2024-02-21T02:09:45;99946.72;;;10.09;55.89
6506;BME280;3286;49.858;8.768;2024-02-21T02:12:11;99950.75;;;9.70;56.59
6506;BME280;3286;49.858;8.768;2024-02-21T02:14:38;99945.31;;;9.51;57.47
6506;BME280;3286;49.858;8.768;2024-02-21T02:17:05;99944.75;;;9.68;56.99
6506;BME280;3286;49.858;8.768;2024-02-21T02:19:31;99928.81;;;9.37;57.82
6506;BME280;3286;49.858;8.768;2024-02-21T02:22:06;99930.63;;;9.91;56.41
6506;BME280;3286;49.858;8.768;2024-02-21T02:24:35;99923.31;;;10.15;55.41
6506;BME280;3286;49.858;8.768;2024-02-21T02:27:02;99912.16;;;9.91;56.12
6506;BME280;3286;49.858;8.768;2024-02-21T02:29:31;99919.81;;;9.94;56.17
6506;BME280;3286;49.858;8.768;2024-02-21T02:31:58;99923.38;;;9.83;56.04
6506;BME280;3286;49.858;8.768;2024-02-21T02:34:25;99918.81;;;9.85;56.16
6506;BME280;3286;49.858;8.768;2024-02-21T02:36:51;99914.34;;;9.85;55.95
6506;BME280;3286;49.858;8.768;2024-02-21T02:39:19;99909.50;;;10.12;55.03
6506;BME280;3286;49.858;8.768;2024-02-21T02:41:47;99896.09;;;10.25;54.12
6506;BME280;3286;49.858;8.768;2024-02-21T02:44:14;99897.44;;;10.19;54.75
6506;BME280;3286;49.858;8.768;2024-02-21T02:46:41;99903.47;;;10.21;54.61
6506;BME280;3286;49.858;8.768;2024-02-21T02:49:08;99902.34;;;10.24;54.42
6506;BME280;3286;49.858;8.768;2024-02-21T02:51:35;99904.38;;;10.63;53.91
6506;BME280;3286;49.858;8.768;2024-02-21T02:54:00;99903.75;;;10.80;52.96
6506;BME280;3286;49.858;8.768;2024-02-21T02:56:27;99898.13;;;9.90;55.70
6506;BME280;3286;49.858;8.768;2024-02-21T02:58:55;99890.75;;;10.15;54.87
6506;BME280;3286;49.858;8.768;2024-02-21T03:01:21;99882.47;;;10.20;54.67
6506;BME280;3286;49.858;8.768;2024-02-21T03:03:48;99873.22;;;10.04;55.48
6506;BME280;3286;49.858;8.768;2024-02-21T03:06:15;99887.63;;;9.79;55.40
6506;BME280;3286;49.858;8.768;2024-02-21T03:08:42;99883.88;;;10.24;55.02
6506;BME280;3286;49.858;8.768;2024-02-21T03:11:09;99879.84;;;9.98;55.52
6506;BME280;3286;49.858;8.768;2024-02-21T03:13:36;99878.88;;;9.78;56.00
6506;BME280;3286;49.858;8.768;2024-02-21T03:16:04;99871.22;;;9.54;56.22
6506;BME280;3286;49.858;8.768;2024-02-21T03:18:31;99875.84;;;9.29;57.76
6506;BME280;3286;49.858;8.768;2024-02-21T03:20:58;99870.97;;;9.99;55.52
6506;BME280;3286;49.858;8.768;2024-02-21T03:23:24;99876.56;;;9.64;56.16
6506;BME280;3286;49.858;8.768;2024-02-21T03:25:51;99870.38;;;9.96;55.32
6506;BME280;3286;49.858;8.768;2024-02-21T03:28:18;99879.91;;;9.87;55.17
6506;BME280;3286;49.858;8.768;2024-02-21T03:30:44;99871.31;;;10.16;54.58
6506;BME280;3286;49.858;8.768;2024-02-21T03:33:11;99875.25;;;10.22;54.56
6506;BME280;3286;49.858;8.768;2024-02-21T03:35:38;99877.34;;;10.28;54.49
6506;BME280;3286;49.858;8.768;2024-02-21T03:38:04;99871.53;;;10.55;53.60
6506;BME280;3286;49.858;8.768;2024-02-21T03:40:31;99854.94;;;9.91;54.33
6506;BME280;3286;49.858;8.768;2024-02-21T03:42:58;99849.94;;;10.19;54.39
6506;BME280;3286;49.858;8.768;2024-02-21T03:45:24;99846.03;;;10.13;54.62
6506;BME280;3286;49.858;8.768;2024-02-21T03:47:51;99846.16;;;10.12;53.82
6506;BME280;3286;49.858;8.768;2024-02-21T03:50:19;99837.22;;;10.03;53.92
6506;BME280;3286;49.858;8.768;2024-02-21T03:52:45;99846.81;;;10.04;54.51
6506;BME280;3286;49.858;8.768;2024-02-21T03:55:13;99853.38;;;9.89;55.11
6506;BME280;3286;49.858;8.768;2024-02-21T03:57:39;99847.59;;;9.52;55.86
6506;BME280;3286;49.858;8.768;2024-02-21T04:00:07;99853.84;;;9.73;55.92
6506;BME280;3286;49.858;8.768;2024-02-21T04:02:36;99846.19;;;9.91;55.35
6506;BME280;3286;49.858;8.768;2024-02-21T04:05:03;99858.91;;;10.38;54.26
6506;BME280;3286;49.858;8.768;2024-02-21T04:07:32;99861.22;;;10.21;54.80
6506;BME280;3286;49.858;8.768;2024-02-21T04:09:58;99859.84;;;10.27;54.86
6506;BME280;3286;49.858;8.768;2024-02-21T04:12:25;99854.59;;;10.06;54.77
6506;BME280;3286;49.858;8.768;2024-02-21T04:14:51;99844.81;;;9.96;55.57
6506;BME280;3286;49.858;8.768;2024-02-21T04:17:18;99860.84;;;10.05;54.65
6506;BME280;3286;49.858;8.768;2024-02-21T04:19:45;99855.66;;;9.18;57.69
6506;BME280;3286;49.858;8.768;2024-02-21T04:22:11;99855.97;;;10.00;55.44
6506;BME280;3286;49.858;8.768;2024-02-21T04:24:39;99851.16;;;9.84;55.60
6506;BME280;3286;49.858;8.768;2024-02-21T04:27:06;99842.00;;;9.88;55.74
6506;BME280;3286;49.858;8.768;2024-02-21T04:29:33;99840.78;;;9.71;55.85
6506;BME280;3286;49.858;8.768;2024-02-21T04:32:01;99840.28;;;9.56;55.70
6506;BME280;3286;49.858;8.768;2024-02-21T04:34:29;99827.97;;;9.66;55.94
6506;BME280;3286;49.858;8.768;2024-02-21T04:36:56;99833.69;;;9.50;56.46
6506;BME280;3286;49.858;8.768;2024-02-21T04:39:22;99822.69;;;9.45;56.71
6506;BME280;3286;49.858;8.768;2024-02-21T04:41:50;99816.94;;;9.19;57.31
6506;BME280;3286;49.858;8.768;2024-02-21T04:44:17;99814.53;;;9.48;55.82
6506;BME280;3286;49.858;8.768;2024-02-21T04:46:47;99792.34;;;9.51;55.77
6506;BME280;3286;49.858;8.768;2024-02-21T04:49:13;99794.69;;;9.11;57.17
6506;BME280;3286;49.858;8.768;2024-02-21T04:51:41;99798.84;;;9.47;55.88
6506;BME280;3286;49.858;8.768;2024-02-21T04:54:07;99796.13;;;9.37;56.21
6506;BME280;3286;49.858;8.768;2024-02-21T04:56:34;99793.94;;;9.42;56.84
6506;BME280;3286;49.858;8.768;2024-02-21T04:59:02;99781.28;;;9.36;56.14
6506;BME280;3286;49.858;8.768;2024-02-21T05:01:29;99776.44;;;9.62;55.57
6506;BME280;3286;49.858;8.768;2024-02-21T05:03:56;99769.09;;;9.87;55.01
6506;BME280;3286;49.858;8.768;2024-02-21T05:06:23;99769.47;;;9.82;54.23
6506;BME280;3286;49.858;8.768;2024-02-21T05:08:50;99772.72;;;8.90;57.54
6506;BME280;3286;49.858;8.768;2024-02-21T05:11:16;99774.38;;;9.87;55.15
6506;BME280;3286;49.858;8.768;2024-02-21T05:13:45;99765.03;;;10.24;53.78
6506;BME280;3286;49.858;8.768;2024-02-21T05:16:16;99762.34;;;9.73;55.27
6506;BME280;3286;49.858;8.768;2024-02-21T05:18:44;99753.50;;;9.53;54.61
6506;BME280;3286;49.858;8.768;2024-02-21T05:21:11;99758.44;;;8.71;57.03
6506;BME280;3286;49.858;8.768;2024-02-21T05:23:37;99760.78;;;9.39;55.61
6506;BME280;3286;49.858;8.768;2024-02-21T05:26:04;99764.63;;;9.88;54.80
6506;BME280;3286;49.858;8.768;2024-02-21T05:28:34;99752.13;;;9.37;55.19
6506;BME280;3286;49.858;8.768;2024-02-21T05:31:00;99754.91;;;9.88;54.88
6506;BME280;3286;49.858;8.768;2024-02-21T05:33:29;99760.84;;;8.95;56.12
6506;BME280;3286;49.858;8.768;2024-02-21T05:35:55;99761.25;;;9.33;55.91
6506;BME280;3286;49.858;8.768;2024-02-21T05:38:22;99767.22;;;9.78;54.09
6506;BME280;3286;49.858;8.768;2024-02-21T05:40:49;99768.47;;;9.52;54.53
6506;BME280;3286;49.858;8.768;2024-02-21T05:43:16;99765.13;;;10.03;53.81
6506;BME280;3286;49.858;8.768;2024-02-21T05:45:42;99769.84;;;10.40;53.06
6506;BME280;3286;49.858;8.768;2024-02-21T05:48:09;99774.84;;;8.96;55.94
6506;BME280;3286;49.858;8.768;2024-02-21T05:50:37;99781.13;;;9.16;55.48
6506;BME280;3286;49.858;8.768;2024-02-21T05:53:03;99771.84;;;8.57;57.34
6506;BME280;3286;49.858;8.768;2024-02-21T05:55:30;99776.00;;;9.15;55.68
6506;BME280;3286;49.858;8.768;2024-02-21T05:57:57;99766.91;;;9.07;55.36
6506;BME280;3286;49.858;8.768;2024-02-21T06:00:26;99764.06;;;8.66;57.25
6506;BME280;3286;49.858;8.768;2024-02-21T06:02:52;99760.34;;;8.69;57.97
6506;BME280;3286;49.858;8.768;2024-02-21T06:05:19;99755.59;;;8.95;57.13
6506;BME280;3286;49.858;8.768;2024-02-21T06:07:47;99746.47;;;8.99;57.02
6506;BME280;3286;49.858;8.768;2024-02-21T06:10:14;99745.63;;;9.63;56.61
6506;BME280;3286;49.858;8.768;2024-02-21T06:12:40;99750.94;;;9.73;54.80
6506;BME280;3286;49.858;8.768;2024-02-21T06:15:07;99751.56;;;9.34;55.59
6506;BME280;3286;49.858;8.768;2024-02-21T06:17:34;99751.53;;;9.76;55.68
6506;BME280;3286;49.858;8.768;2024-02-21T06:20:01;99745.81;;;10.12;53.60
6506;BME280;3286;49.858;8.768;2024-02-21T06:22:28;99748.75;;;9.78;54.70
6506;BME280;3286;49.858;8.768;2024-02-21T06:24:56;99739.78;;;9.90;54.15
6506;BME280;3286;49.858;8.768;2024-02-21T06:27:22;99735.34;;;9.60;55.36
6506;BME280;3286;49.858;8.768;2024-02-21T06:29:49;99733.72;;;9.68;55.39
6506;BME280;3286;49.858;8.768;2024-02-21T06:32:16;99729.09;;;9.61;54.67
6506;BME280;3286;49.858;8.768;2024-02-21T06:34:43;99726.53;;;10.11;54.35
6506;BME280;3286;49.858;8.768;2024-02-21T06:37:09;99732.41;;;9.84;54.79
6506;BME280;3286;49.858;8.768;2024-02-21T06:39:37;99724.25;;;9.97;54.17
6506;BME280;3286;49.858;8.768;2024-02-21T06:42:07;99728.53;;;9.88;53.76
6506;BME280;3286;49.858;8.768;2024-02-21T06:44:34;99719.09;;;9.12;56.64
6506;BME280;3286;49.858;8.768;2024-02-21T06:47:05;99714.75;;;8.90;56.15
6506;BME280;3286;49.858;8.768;2024-02-21T06:49:32;99712.72;;;8.93;57.02
6506;BME280;3286;49.858;8.768;2024-02-21T06:51:59;99709.50;;;9.32;55.51
6506;BME280;3286;49.858;8.768;2024-02-21T06:54:26;99706.75;;;8.47;57.81
6506;BME280;3286;49.858;8.768;2024-02-21T06:56:52;99706.66;;;9.45;55.41
6506;BME280;3286;49.858;8.768;2024-02-21T06:59:20;99708.88;;;10.02;54.10
6506;BME280;3286;49.858;8.768;2024-02-21T07:01:48;99702.03;;;9.99;54.00
6506;BME280;3286;49.858;8.768;2024-02-21T07:04:15;99706.34;;;9.60;54.51
6506;BME280;3286;49.858;8.768;2024-02-21T07:06:42;99703.34;;;10.25;54.14
6506;BME280;3286;49.858;8.768;2024-02-21T07:09:08;99710.84;;;9.48;55.13
6506;BME280;3286;49.858;8.768;2024-02-21T07:11:35;99710.50;;;9.93;54.71
6506;BME280;3286;49.858;8.768;2024-02-21T07:14:02;99715.19;;;9.80;54.58
6506;BME280;3286;49.858;8.768;2024-02-21T07:16:29;99716.97;;;9.79;54.53
6506;BME280;3286;49.858;8.768;2024-02-21T07:18:58;99714.97;;;9.71;54.91
6506;BME280;3286;49.858;8.768;2024-02-21T07:21:25;99704.19;;;9.53;55.37
6506;BME280;3286;49.858;8.768;2024-02-21T07:23:51;99699.91;;;9.83;54.60
6506;BME280;3286;49.858;8.768;2024-02-21T07:26:18;99686.91;;;9.61;55.44
6506;BME280;3286;49.858;8.768;2024-02-21T07:28:45;99701.91;;;10.11;53.73
6506;BME280;3286;49.858;8.768;2024-02-21T07:31:11;99689.03;;;9.77;54.56
6506;BME280;3286;49.858;8.768;2024-02-21T07:33:39;99689.69;;;10.10;54.13
6506;BME280;3286;49.858;8.768;2024-02-21T07:36:06;99687.16;;;10.49;53.00
6506;BME280;3286;49.858;8.768;2024-02-21T07:38:33;99690.91;;;9.96;53.85
6506;BME280;3286;49.858;8.768;2024-02-21T07:41:00;99692.53;;;10.38;52.95
6506;BME280;3286;49.858;8.768;2024-02-21T07:43:27;99686.50;;;10.06;53.45
6506;BME280;3286;49.858;8.768;2024-02-21T07:45:53;99697.19;;;9.64;54.66
6506;BME280;3286;49.858;8.768;2024-02-21T07:48:20;99696.28;;;9.53;55.37
6506;BME280;3286;49.858;8.768;2024-02-21T07:50:51;99698.47;;;9.48;55.36
6506;BME280;3286;49.858;8.768;2024-02-21T07:53:17;99692.91;;;9.73;54.59
6506;BME280;3286;49.858;8.768;2024-02-21T07:55:44;99696.44;;;9.52;54.59
6506;BME280;3286;49.858;8.768;2024-02-21T07:58:11;99694.88;;;9.49;55.91
6506;BME280;3286;49.858;8.768;2024-02-21T08:00:37;99693.13;;;10.41;53.12
6506;BME280;3286;49.858;8.768;2024-02-21T08:03:04;99685.81;;;10.14;52.70
6506;BME280;3286;49.858;8.768;2024-02-21T08:05:30;99694.78;;;9.30;56.32
6506;BME280;3286;49.858;8.768;2024-02-21T08:08:01;99685.66;;;9.65;54.56
6506;BME280;3286;49.858;8.768;2024-02-21T08:10:28;99694.06;;;7.97;58.85
6506;BME280;3286;49.858;8.768;2024-02-21T08:12:55;99687.72;;;9.09;56.03
6506;BME280;3286;49.858;8.768;2024-02-21T08:15:21;99684.06;;;9.52;54.98
6506;BME280;3286;49.858;8.768;2024-02-21T08:17:53;99668.25;;;10.54;51.82
6506;BME280;3286;49.858;8.768;2024-02-21T08:20:24;99670.38;;;10.19;53.23
6506;BME280;3286;49.858;8.768;2024-02-21T08:22:50;99674.91;;;9.56;55.18
6506;BME280;3286;49.858;8.768;2024-02-21T08:25:18;99660.88;;;10.57;52.69
6506;BME280;3286;49.858;8.768;2024-02-21T08:27:45;99667.13;;;10.56;51.87
6506;BME280;3286;49.858;8.768;2024-02-21T08:30:12;99661.06;;;9.64;54.04
6506;BME280;3286;49.858;8.768;2024-02-21T08:32:39;99655.09;;;9.62;54.62
6506;BME280;3286;49.858;8.768;2024-02-21T08:35:06;99646.28;;;10.43;52.55
6506;BME280;3286;49.858;8.768;2024-02-21T08:37:33;99650.72;;;10.53;52.33
6506;BME280;3286;49.858;8.768;2024-02-21T08:39:59;99644.75;;;10.51;51.71
6506;BME280;3286;49.858;8.768;2024-02-21T08:42:31;99642.78;;;10.72;51.87
6506;BME280;3286;49.858;8.768;2024-02-21T08:44:58;99646.00;;;9.45;54.19
6506;BME280;3286;49.858;8.768;2024-02-21T08:47:25;99642.41;;;9.46;54.96
6506;BME280;3286;49.858;8.768;2024-02-21T08:49:51;99637.19;;;10.17;53.22
6506;BME280;3286;49.858;8.768;2024-02-21T08:52:18;99633.47;;;10.78;51.32
6506;BME280;3286;49.858;8.768;2024-02-21T08:54:44;99641.41;;;10.88;51.13
6506;BME280;3286;49.858;8.768;2024-02-21T08:57:11;99639.16;;;10.24;53.01
6506;BME280;3286;49.858;8.768;2024-02-21T08:59:40;99636.22;;;10.96;50.59
6506;BME280;3286;49.858;8.768;2024-02-21T09:02:07;99636.41;;;10.46;51.77
6506;BME280;3286;49.858;8.768;2024-02-21T09:04:34;99637.59;;;8.78;56.64
6506;BME280;3286;49.858;8.768;2024-02-21T09:07:00;99625.69;;;10.27;53.85
6506;BME280;3286;49.858;8.768;2024-02-21T09:09:27;99630.72;;;10.60;52.35
6506;BME280;3286;49.858;8.768;2024-02-21T09:11:54;99629.13;;;10.97;51.32
6506;BME280;3286;49.858;8.768;2024-02-21T09:14:20;99624.84;;;10.56;51.41
6506;BME280;3286;49.858;8.768;2024-02-21T09:16:49;99619.00;;;10.33;52.81
6506;BME280;3286;49.858;8.768;2024-02-21T09:19:15;99629.28;;;10.36;52.42
6506;BME280;3286;49.858;8.768;2024-02-21T09:21:43;99626.34;;;10.89;51.28
6506;BME280;3286;49.858;8.768;2024-02-21T09:24:09;99625.94;;;11.03;51.43
6506;BME280;3286;49.858;8.768;2024-02-21T09:26:36;99620.78;;;10.92;50.88
6506;BME280;3286;49.858;8.768;2024-02-21T09:29:03;99616.06;;;10.36;51.87
6506;BME280;3286;49.858;8.768;2024-02-21T09:31:29;99610.78;;;10.36;53.07
6506;BME280;3286;49.858;8.768;2024-02-21T09:33:57;99609.03;;;10.47;52.77
6506;BME280;3286;49.858;8.768;2024-02-21T09:36:24;99607.03;;;10.78;51.48
6506;BME280;3286;49.858;8.768;2024-02-21T09:38:50;99610.47;;;11.08;50.83
6506;BME280;3286;49.858;8.768;2024-02-21T09:41:18;99597.59;;;10.76;51.66
6506;BME280;3286;49.858;8.768;2024-02-21T09:43:45;99594.78;;;11.35;50.47
6506;BME280;3286;49.858;8.768;2024-02-21T09:46:16;99593.41;;;11.30;50.87
6506;BME280;3286;49.858;8.768;2024-02-21T09:48:55;99601.31;;;10.93;50.82
6506;BME280;3286;49.858;8.768;2024-02-21T09:51:28;99599.13;;;10.68;52.10
6506;BME280;3286;49.858;8.768;2024-02-21T09:53:57;99596.41;;;11.45;50.28
6506;BME280;3286;49.858;8.768;2024-02-21T09:56:24;99589.00;;;10.54;52.71
6506;BME280;3286;49.858;8.768;2024-02-21T09:58:51;99591.22;;;11.16;51.59
6506;BME280;3286;49.858;8.768;2024-02-21T10:01:18;99592.53;;;11.68;50.33
6506;BME280;3286;49.858;8.768;2024-02-21T10:03:44;99592.34;;;11.97;49.55
6506;BME280;3286;49.858;8.768;2024-02-21T10:06:11;99590.03;;;11.66;50.09
6506;BME280;3286;49.858;8.768;2024-02-21T10:08:39;99585.59;;;11.67;49.74
6506;BME280;3286;49.858;8.768;2024-02-21T10:11:05;99572.41;;;12.39;48.02
6506;BME280;3286;49.858;8.768;2024-02-21T10:13:34;99565.31;;;12.93;47.16
6506;BME280;3286;49.858;8.768;2024-02-21T10:16:04;99567.81;;;13.21;46.58
6506;BME280;3286;49.858;8.768;2024-02-21T10:18:32;99573.69;;;12.35;48.21
6506;BME280;3286;49.858;8.768;2024-02-21T10:21:02;99572.09;;;11.88;48.10
6506;BME280;3286;49.858;8.768;2024-02-21T10:23:42;99567.03;;;12.13;48.59
6506;BME280;3286;49.858;8.768;2024-02-21T10:26:09;99555.66;;;11.84;48.70
6506;BME280;3286;49.858;8.768;2024-02-21T10:28:36;99557.06;;;12.07;47.86
6506;BME280;3286;49.858;8.768;2024-02-21T10:31:07;99558.63;;;11.99;48.54
6506;BME280;3286;49.858;8.768;2024-02-21T10:33:34;99551.94;;;11.77;48.49
6506;BME280;3286;49.858;8.768;2024-02-21T10:36:07;99552.25;;;12.91;46.69
6506;BME280;3286;49.858;8.768;2024-02-21T10:38:36;99536.72;;;12.25;48.00
6506;BME280;3286;49.858;8.768;2024-02-21T10:41:05;99538.75;;;12.31;47.67
6506;BME280;3286;49.858;8.768;2024-02-21T10:43:37;99535.53;;;11.73;48.67
6506;BME280;3286;49.858;8.768;2024-02-21T10:46:05;99524.56;;;11.40;49.35
6506;BME280;3286;49.858;8.768;2024-02-21T10:48:41;99519.03;;;11.80;48.56
6506;BME280;3286;49.858;8.768;2024-02-21T10:51:14;99518.97;;;11.89;48.00
6506;BME280;3286;49.858;8.768;2024-02-21T10:53:44;99523.44;;;11.71;48.43
6506;BME280;3286;49.858;8.768;2024-02-21T10:56:21;99515.34;;;10.89;51.04
6506;BME280;3286;49.858;8.768;2024-02-21T10:58:49;99511.28;;;11.04;50.70
6506;BME280;3286;49.858;8.768;2024-02-21T11:01:17;99512.25;;;11.31;50.06
6506;BME280;3286;49.858;8.768;2024-02-21T11:03:45;99503.19;;;12.16;48.27
6506;BME280;3286;49.858;8.768;2024-02-21T11:06:14;99501.38;;;12.96;47.28
6506;BME280;3286;49.858;8.768;2024-02-21T11:08:41;99499.69;;;12.34;46.91
6506;BME280;3286;49.858;8.768;2024-02-21T11:11:08;99492.09;;;12.39;47.44
6506;BME280;3286;49.858;8.768;2024-02-21T11:13:38;99487.50;;;12.75;46.85
6506;BME280;3286;49.858;8.768;2024-02-21T11:16:11;99483.75;;;12.52;47.29
6506;BME280;3286;49.858;8.768;2024-02-21T11:18:38;99480.25;;;12.51;47.39
6506;BME280;3286;49.858;8.768;2024-02-21T11:21:05;99473.00;;;13.39;45.19
6506;BME280;3286;49.858;8.768;2024-02-21T11:23:32;99467.75;;;12.96;47.37
6506;BME280;3286;49.858;8.768;2024-02-21T11:26:06;99454.66;;;13.54;45.60
6506;BME280;3286;49.858;8.768;2024-02-21T11:28:33;99461.00;;;13.10;47.31
6506;BME280;3286;49.858;8.768;2024-02-21T11:31:12;99452.31;;;13.00;47.01
6506;BME280;3286;49.858;8.768;2024-02-21T11:33:40;99448.25;;;13.22;46.56
6506;BME280;3286;49.858;8.768;2024-02-21T11:36:08;99439.16;;;13.33;46.12
6506;BME280;3286;49.858;8.768;2024-02-21T11:38:34;99430.28;;;13.51;45.73
6506;BME280;3286;49.858;8.768;2024-02-21T11:41:01;99437.75;;;12.61;47.16
6506;BME280;3286;49.858;8.768;2024-02-21T11:43:28;99428.19;;;12.77;47.13
6506;BME280;3286;49.858;8.768;2024-02-21T11:45:59;99423.88;;;13.18;46.44
6506;BME280;3286;49.858;8.768;2024-02-21T11:48:27;99420.38;;;13.10;46.84
6506;BME280;3286;49.858;8.768;2024-02-21T11:50:54;99403.25;;;13.72;44.94
6506;BME280;3286;49.858;8.768;2024-02-21T11:53:21;99406.47;;;12.38;47.75
6506;BME280;3286;49.858;8.768;2024-02-21T11:55:48;99406.94;;;12.60;47.49
6506;BME280;3286;49.858;8.768;2024-02-21T11:58:16;99395.44;;;12.16;49.05
6506;BME280;3286;49.858;8.768;2024-02-21T12:00:42;99393.09;;;12.13;48.80
6506;BME280;3286;49.858;8.768;2024-02-21T12:03:09;99387.94;;;11.67;49.72
6506;BME280;3286;49.858;8.768;2024-02-21T12:05:37;99377.78;;;12.60;47.51
6506;BME280;3286;49.858;8.768;2024-02-21T12:08:04;99370.44;;;12.97;47.10
6506;BME280;3286;49.858;8.768;2024-02-21T12:10:31;99373.38;;;12.42;47.95
6506;BME280;3286;49.858;8.768;2024-02-21T12:13:05;99366.41;;;13.60;45.57
6506;BME280;3286;49.858;8.768;2024-02-21T12:15:32;99356.47;;;12.70;46.72
6506;BME280;3286;49.858;8.768;2024-02-21T12:17:59;99358.25;;;12.69;47.07
6506;BME280;3286;49.858;8.768;2024-02-21T12:20:26;99345.09;;;13.02;47.23
6506;BME280;3286;49.858;8.768;2024-02-21T12:22:54;99346.31;;;13.25;46.34
6506;BME280;3286;49.858;8.768;2024-02-21T12:25:22;99335.69;;;13.25;46.41
6506;BME280;3286;49.858;8.768;2024-02-21T12:27:51;99331.66;;;13.04;46.64
6506;BME280;3286;49.858;8.768;2024-02-21T12:30:18;99327.31;;;12.70;46.87
6506;BME280;3286;49.858;8.768;2024-02-21T12:32:46;99320.91;;;13.14;46.16
6506;BME280;3286;49.858;8.768;2024-02-21T12:35:13;99320.16;;;12.62;47.47
6506;BME280;3286;49.858;8.768;2024-02-21T12:37:40;99321.38;;;12.07;48.59
6506;BME280;3286;49.858;8.768;2024-02-21T12:40:09;99313.66;;;12.13;47.91
6506;BME280;3286;49.858;8.768;2024-02-21T12:42:38;99302.88;;;13.17;46.78
6506;BME280;3286;49.858;8.768;2024-02-21T12:45:06;99288.31;;;13.46;45.40
6506;BME280;3286;49.858;8.768;2024-02-21T12:47:33;99290.91;;;13.80;44.40
6506;BME280;3286;49.858;8.768;2024-02-21T12:49:59;99276.16;;;13.60;45.10
6506;BME280;3286;49.858;8.768;2024-02-21T12:52:28;99271.69;;;13.44;45.36
6506;BME280;3286;49.858;8.768;2024-02-21T12:54:55;99268.19;;;13.11;45.91
6506;BME280;3286;49.858;8.768;2024-02-21T12:57:25;99261.91;;;13.03;45.88
6506;BME280;3286;49.858;8.768;2024-02-21T12:59:52;99262.97;;;12.51;46.30
6506;BME280;3286;49.858;8.768;2024-02-21T13:02:18;99256.53;;;12.54;46.62
6506;BME280;3286;49.858;8.768;2024-02-21T13:04:46;99248.94;;;13.75;44.59
6506;BME280;3286;49.858;8.768;2024-02-21T13:07:13;99250.47;;;13.61;44.32
6506;BME280;3286;49.858;8.768;2024-02-21T13:09:39;99268.72;;;13.06;46.13
6506;BME280;3286;49.858;8.768;2024-02-21T13:12:06;99252.09;;;12.71;46.12
6506;BME280;3286;49.858;8.768;2024-02-21T13:14:35;99256.34;;;12.55;45.79
6506;BME280;3286;49.858;8.768;2024-02-21T13:17:04;99249.13;;;12.90;45.51
6506;BME280;3286;49.858;8.768;2024-02-21T13:19:31;99238.34;;;12.75;45.90
6506;BME280;3286;49.858;8.768;2024-02-21T13:21:57;99225.09;;;13.42;44.40
6506;BME280;3286;49.858;8.768;2024-02-21T13:24:24;99220.22;;;12.38;45.95
6506;BME280;3286;49.858;8.768;2024-02-21T13:26:51;99220.47;;;13.11;45.51